Time;durP1;ratioP1;P1;durP2;ratioP2;P2;SDS_P1;SDS_P2;PMS_P1;PMS_P2;Temp;Humidity;BMP_temperature;BMP_pressure;BME280_temperature;BME280_humidity;BME280_pressure;Samples;Min_cycle;Max_cycle;Signal;HPM_P1;HPM_P2
2022/03/29 00:00:03;;;;;;;19.77;14.97;;;7.20;99.90;;;;;;5014232;28;20682;-78
2022/03/29 00:02:29;;;;;;;14.30;12.27;;;7.20;99.90;;;;;;5019191;28;20595;-77
2022/03/29 00:04:54;;;;;;;15.10;12.47;;;7.20;99.90;;;;;;5017977;28;20200;-78
2022/03/29 00:07:20;;;;;;;18.90;12.97;;;7.10;99.90;;;;;;5015508;28;20290;-77
2022/03/29 00:09:45;;;;;;;20.97;13.37;;;7.10;99.90;;;;;;5017074;28;20184;-79
2022/03/29 00:12:11;;;;;;;18.53;12.13;;;7.10;99.90;;;;;;5017219;28;20199;-78
2022/03/29 00:14:36;;;;;;;15.43;12.57;;;7.00;99.90;;;;;;5016641;28;20215;-77
2022/03/29 00:17:02;;;;;;;19.53;13.10;;;7.00;99.90;;;;;;5022336;28;20172;-71
2022/03/29 00:19:27;;;;;;;17.07;13.23;;;7.00;99.90;;;;;;5018521;28;20637;-72
2022/03/29 00:21:53;;;;;;;15.80;11.67;;;7.00;99.90;;;;;;5017128;28;20180;-69
2022/03/29 00:24:18;;;;;;;23.70;17.80;;;7.00;99.90;;;;;;5018653;28;20204;-73
2022/03/29 00:26:47;;;;;;;29.80;17.63;;;6.90;99.90;;;;;;5015030;28;20235;-74
2022/03/29 00:29:12;;;;;;;55.00;29.63;;;6.90;99.90;;;;;;5022847;28;20202;-73
2022/03/29 00:31:38;;;;;;;17.50;12.30;;;7.00;99.90;;;;;;5007399;28;20681;-74
2022/03/29 00:34:03;;;;;;;77.47;41.77;;;7.00;99.90;;;;;;5014672;28;20561;-73
2022/03/29 00:36:29;;;;;;;25.03;14.00;;;7.00;99.90;;;;;;5007657;28;20172;-74
2022/03/29 00:38:55;;;;;;;17.80;12.63;;;7.00;99.90;;;;;;5009569;28;20195;-74
2022/03/29 00:41:21;;;;;;;16.13;12.53;;;7.00;99.90;;;;;;5004460;28;20552;-72
2022/03/29 00:43:46;;;;;;;18.10;12.50;;;7.00;99.90;;;;;;5011222;28;20242;-72
2022/03/29 00:46:12;;;;;;;19.07;12.97;;;6.90;99.90;;;;;;5012537;28;20714;-71
2022/03/29 00:48:38;;;;;;;18.07;13.00;;;6.90;99.90;;;;;;5018993;28;20557;-71
2022/03/29 00:51:05;;;;;;;16.37;12.67;;;6.90;99.90;;;;;;5012838;28;20250;-71
2022/03/29 00:53:31;;;;;;;35.23;18.43;;;6.90;99.90;;;;;;5007538;28;20722;-71
2022/03/29 00:55:59;;;;;;;16.27;12.40;;;7.00;99.90;;;;;;5012771;28;20302;-71
2022/03/29 00:58:25;;;;;;;17.10;12.90;;;7.00;99.90;;;;;;5015907;28;20500;-71
2022/03/29 01:00:54;;;;;;;19.43;13.47;;;7.00;99.90;;;;;;5009257;28;20294;-71
2022/03/29 01:03:19;;;;;;;16.83;12.93;;;7.00;99.90;;;;;;5018702;28;20196;-71
2022/03/29 01:05:45;;;;;;;17.17;12.93;;;7.00;99.90;;;;;;5005768;28;20585;-71
2022/03/29 01:08:11;;;;;;;16.77;11.90;;;7.00;99.90;;;;;;5013348;28;20195;-72
2022/03/29 01:10:36;;;;;;;20.27;13.17;;;7.10;99.90;;;;;;5018767;28;20214;-72
2022/03/29 01:13:02;;;;;;;15.10;11.97;;;7.00;99.90;;;;;;5020782;28;20196;-72
2022/03/29 01:15:31;;;;;;;14.23;10.63;;;7.10;99.90;;;;;;5018444;28;20571;-72
2022/03/29 01:17:57;;;;;;;16.57;12.13;;;7.10;99.90;;;;;;5018689;28;20194;-73
2022/03/29 01:20:27;;;;;;;15.87;11.90;;;7.00;99.90;;;;;;5004595;28;20211;-73
2022/03/29 01:22:53;;;;;;;16.50;13.00;;;7.00;99.90;;;;;;5014844;28;20599;-72
2022/03/29 01:25:22;;;;;;;17.47;12.87;;;7.00;99.90;;;;;;5005662;28;20216;-72
2022/03/29 01:27:49;;;;;;;17.63;12.73;;;6.90;99.90;;;;;;5018148;28;20242;-73
2022/03/29 01:30:16;;;;;;;20.60;13.40;;;7.00;99.90;;;;;;5008675;28;20965;-72
2022/03/29 01:32:46;;;;;;;15.97;12.10;;;7.00;99.90;;;;;;5006273;28;20208;-72
2022/03/29 01:35:13;;;;;;;16.60;12.43;;;7.00;99.90;;;;;;5011440;28;20250;-73
2022/03/29 01:37:39;;;;;;;16.87;13.30;;;6.90;99.90;;;;;;5016897;28;20187;-79
2022/03/29 01:40:13;;;;;;;18.73;12.53;;;6.90;99.90;;;;;;5022158;28;20211;-72
2022/03/29 01:42:43;;;;;;;20.10;13.43;;;6.90;99.90;;;;;;5020959;28;20575;-72
2022/03/29 01:45:09;;;;;;;19.93;13.20;;;6.90;99.90;;;;;;5018807;28;20299;-75
2022/03/29 01:47:35;;;;;;;21.67;15.10;;;7.00;99.90;;;;;;5014902;28;20254;-75
2022/03/29 01:50:00;;;;;;;24.83;14.67;;;7.00;99.90;;;;;;5014028;28;20413;-76
2022/03/29 01:52:26;;;;;;;22.37;14.27;;;6.90;99.90;;;;;;5023443;28;20213;-76
2022/03/29 01:54:51;;;;;;;16.70;12.70;;;7.00;99.90;;;;;;5004878;28;20247;-74
2022/03/29 01:57:17;;;;;;;19.43;14.23;;;7.10;99.90;;;;;;5014565;28;20282;-74
2022/03/29 02:02:27;;;;;;;28.63;14.60;;;7.10;99.90;;;;;;5022361;28;20343;-73
2022/03/29 02:04:52;;;;;;;18.53;13.33;;;7.10;99.90;;;;;;5003972;28;20216;-73
2022/03/29 02:07:18;;;;;;;21.10;14.70;;;7.00;99.90;;;;;;5018012;28;20274;-73
2022/03/29 02:09:44;;;;;;;25.70;15.77;;;7.00;99.90;;;;;;5013151;28;20316;-73
2022/03/29 02:12:12;;;;;;;20.60;14.87;;;7.00;99.90;;;;;;5016411;28;20191;-79
2022/03/29 02:14:38;;;;;;;23.60;14.30;;;7.00;99.90;;;;;;5012888;28;20278;-76
2022/03/29 02:17:04;;;;;;;18.67;14.77;;;7.00;99.90;;;;;;5018330;28;20187;-74
2022/03/29 02:19:30;;;;;;;22.80;15.97;;;7.00;99.90;;;;;;5012719;28;20606;-77
2022/03/29 02:21:55;;;;;;;21.33;15.43;;;7.10;99.90;;;;;;5025632;28;20196;-78
2022/03/29 02:24:21;;;;;;;21.70;14.70;;;7.00;99.90;;;;;;5016021;28;20207;-77
2022/03/29 02:26:46;;;;;;;19.43;14.60;;;7.00;99.90;;;;;;5013336;28;20270;-76
2022/03/29 02:29:12;;;;;;;29.90;18.73;;;7.00;99.90;;;;;;5003808;28;20205;-76
2022/03/29 02:31:37;;;;;;;22.47;15.13;;;7.00;99.90;;;;;;5006737;28;20204;-76
2022/03/29 02:34:03;;;;;;;20.47;14.60;;;6.90;99.90;;;;;;5013162;28;20265;-76
2022/03/29 02:36:29;;;;;;;18.30;12.53;;;7.00;99.90;;;;;;5017836;28;20685;-77
2022/03/29 02:38:54;;;;;;;21.30;15.20;;;7.00;99.90;;;;;;5012888;28;20211;-77
2022/03/29 02:41:20;;;;;;;22.63;14.33;;;6.90;99.90;;;;;;5017300;28;20187;-76
2022/03/29 02:43:45;;;;;;;20.43;14.17;;;6.90;99.90;;;;;;5009352;28;20565;-76
2022/03/29 02:46:11;;;;;;;24.40;15.80;;;6.90;99.90;;;;;;5020136;28;20195;-76
2022/03/29 02:48:36;;;;;;;24.37;14.77;;;6.90;99.90;;;;;;5012972;28;20705;-76
2022/03/29 02:51:02;;;;;;;22.83;17.03;;;7.00;99.90;;;;;;5015342;28;20196;-76
2022/03/29 02:53:27;;;;;;;23.07;14.77;;;7.00;99.90;;;;;;5006133;28;20306;-76
2022/03/29 02:55:53;;;;;;;24.70;15.67;;;7.00;99.90;;;;;;5018873;28;20215;-76
2022/03/29 02:58:18;;;;;;;28.90;17.70;;;7.00;99.90;;;;;;5016962;28;20227;-76
2022/03/29 03:00:44;;;;;;;25.57;17.20;;;6.90;99.90;;;;;;5005572;28;20188;-77
2022/03/29 03:03:09;;;;;;;21.50;15.37;;;6.90;99.90;;;;;;5011871;28;20192;-77
2022/03/29 03:05:35;;;;;;;26.37;15.93;;;6.90;99.90;;;;;;5026463;28;20282;-79
2022/03/29 03:08:02;;;;;;;21.83;15.37;;;7.00;99.90;;;;;;5025146;28;20207;-79
2022/03/29 03:10:28;;;;;;;23.90;16.47;;;7.00;99.90;;;;;;5022286;28;20206;-75
2022/03/29 03:12:53;;;;;;;23.83;15.13;;;7.00;99.90;;;;;;5007913;28;20204;-75
2022/03/29 03:15:21;;;;;;;20.73;15.07;;;7.00;99.90;;;;;;5012539;28;20222;-76
2022/03/29 03:17:49;;;;;;;25.53;15.33;;;6.90;99.90;;;;;;5024181;28;20234;-75
2022/03/29 03:20:15;;;;;;;26.63;16.37;;;6.90;99.90;;;;;;5016746;28;20200;-74
2022/03/29 03:22:40;;;;;;;19.23;13.87;;;6.90;99.90;;;;;;5022852;28;20187;-76
2022/03/29 03:25:07;;;;;;;26.37;16.23;;;6.90;99.90;;;;;;5029074;28;20242;-76
2022/03/29 03:27:34;;;;;;;24.23;14.57;;;7.00;99.90;;;;;;5019080;28;20306;-76
2022/03/29 03:30:00;;;;;;;22.47;14.30;;;6.90;99.90;;;;;;5010181;28;20173;-75
2022/03/29 03:32:26;;;;;;;23.97;15.00;;;6.90;99.90;;;;;;5016462;28;20211;-76
2022/03/29 03:34:51;;;;;;;21.83;13.97;;;6.80;99.90;;;;;;5026145;28;20550;-75
2022/03/29 03:37:16;;;;;;;22.83;15.37;;;6.90;99.90;;;;;;5012517;28;20223;-74
2022/03/29 03:39:42;;;;;;;21.50;15.60;;;6.90;99.90;;;;;;5017062;28;20931;-75
2022/03/29 03:42:11;;;;;;;22.77;15.80;;;6.90;99.90;;;;;;5014646;28;20202;-75
2022/03/29 03:44:39;;;;;;;19.30;12.40;;;7.00;99.90;;;;;;5019728;28;20272;-74
2022/03/29 03:47:08;;;;;;;19.07;13.60;;;6.90;99.90;;;;;;5019215;28;20238;-74
2022/03/29 03:49:34;;;;;;;23.97;13.97;;;6.90;99.90;;;;;;5012967;28;20242;-76
2022/03/29 03:52:00;;;;;;;33.47;22.70;;;6.90;99.90;;;;;;5009273;28;20200;-71
2022/03/29 03:54:26;;;;;;;22.77;15.40;;;6.90;99.90;;;;;;5008910;28;20204;-71
2022/03/29 03:56:51;;;;;;;34.40;21.83;;;6.90;99.90;;;;;;5011096;28;20192;-79
2022/03/29 03:59:17;;;;;;;23.70;15.63;;;6.90;99.90;;;;;;5014845;28;20184;-75
2022/03/29 04:01:43;;;;;;;17.37;13.37;;;6.80;99.90;;;;;;5016806;28;20188;-74
2022/03/29 04:04:08;;;;;;;15.30;11.07;;;6.80;99.90;;;;;;5018341;28;20286;-75
2022/03/29 04:06:33;;;;;;;15.93;12.20;;;6.70;99.90;;;;;;5022760;28;20669;-75
2022/03/29 04:08:59;;;;;;;21.83;14.67;;;6.70;99.90;;;;;;5015965;28;20702;-80
2022/03/29 04:11:26;;;;;;;27.10;17.37;;;6.80;99.90;;;;;;5020620;28;20195;-72
2022/03/29 04:13:51;;;;;;;25.60;15.97;;;6.80;99.90;;;;;;5016957;28;20210;-72
2022/03/29 04:16:17;;;;;;;23.47;19.57;;;6.80;99.90;;;;;;5019449;28;20306;-70
2022/03/29 04:18:42;;;;;;;24.53;16.67;;;6.80;99.90;;;;;;5011963;28;20594;-71
2022/03/29 04:21:09;;;;;;;20.37;13.67;;;6.80;99.90;;;;;;5016573;28;20274;-70
2022/03/29 04:23:35;;;;;;;21.97;15.83;;;6.80;99.90;;;;;;5010348;28;20215;-70
2022/03/29 04:26:01;;;;;;;23.43;16.17;;;6.80;99.90;;;;;;5019405;28;20251;-70
2022/03/29 04:28:27;;;;;;;23.93;15.63;;;6.80;99.90;;;;;;5005946;28;20257;-71
2022/03/29 04:30:55;;;;;;;31.00;15.93;;;6.80;99.90;;;;;;5026698;28;20191;-71
2022/03/29 04:33:21;;;;;;;23.00;14.03;;;6.80;99.90;;;;;;5017915;28;20207;-70
2022/03/29 04:35:46;;;;;;;25.37;16.00;;;6.80;99.90;;;;;;5023371;28;20219;-70
2022/03/29 04:38:12;;;;;;;22.77;15.50;;;6.80;99.90;;;;;;5019718;28;20686;-70
2022/03/29 04:40:38;;;;;;;24.97;14.73;;;6.70;99.90;;;;;;5015772;28;20203;-70
2022/03/29 04:43:03;;;;;;;29.13;17.80;;;6.70;99.90;;;;;;5005336;28;20195;-69
2022/03/29 04:45:29;;;;;;;26.00;16.93;;;6.70;99.90;;;;;;5020179;28;20192;-70
2022/03/29 04:47:54;;;;;;;28.87;18.07;;;6.70;99.90;;;;;;5019837;28;20195;-70
2022/03/29 04:50:20;;;;;;;29.20;17.70;;;6.70;99.90;;;;;;5016138;28;20616;-70
2022/03/29 04:52:46;;;;;;;22.80;14.90;;;6.70;99.90;;;;;;5005023;28;20204;-70
2022/03/29 04:55:13;;;;;;;24.10;15.63;;;6.70;99.90;;;;;;5007288;28;20227;-70
2022/03/29 04:57:41;;;;;;;32.77;29.23;;;6.70;99.90;;;;;;5014338;28;20200;-70
2022/03/29 05:00:07;;;;;;;41.70;35.37;;;6.70;99.90;;;;;;5014942;28;20196;-71
2022/03/29 05:02:35;;;;;;;38.73;25.70;;;6.80;99.90;;;;;;5010182;28;20196;-71
2022/03/29 05:05:01;;;;;;;26.87;15.73;;;6.70;99.90;;;;;;5016452;28;20234;-71
2022/03/29 05:07:28;;;;;;;24.60;17.50;;;6.70;99.90;;;;;;5005515;28;20203;-81
2022/03/29 05:09:54;;;;;;;25.77;16.83;;;6.70;99.90;;;;;;5023365;28;20183;-72
2022/03/29 05:12:19;;;;;;;24.43;17.70;;;6.80;99.90;;;;;;5012651;28;20206;-71
2022/03/29 05:14:45;;;;;;;25.33;16.80;;;6.70;99.90;;;;;;5010053;28;20212;-75
2022/03/29 05:17:10;;;;;;;22.97;15.87;;;6.80;99.90;;;;;;5012473;28;20716;-70
2022/03/29 05:19:36;;;;;;;48.33;43.57;;;6.70;99.90;;;;;;5017356;28;20172;-74
2022/03/29 05:22:01;;;;;;;40.23;23.97;;;6.70;99.90;;;;;;5008920;28;20207;-70
2022/03/29 05:24:27;;;;;;;24.53;16.13;;;6.70;99.90;;;;;;5006798;28;20258;-73
2022/03/29 05:26:53;;;;;;;33.57;25.57;;;6.70;99.90;;;;;;5012387;28;20366;-73
2022/03/29 05:29:19;;;;;;;90.33;82.07;;;6.70;99.90;;;;;;5006465;28;20279;-72
2022/03/29 05:31:45;;;;;;;29.57;17.30;;;6.70;99.90;;;;;;5012428;28;20271;-71
2022/03/29 05:34:10;;;;;;;35.27;22.27;;;6.70;99.90;;;;;;5016973;28;20257;-69
2022/03/29 05:36:36;;;;;;;62.73;55.67;;;6.60;99.90;;;;;;5018338;28;20183;-71
2022/03/29 05:39:03;;;;;;;97.27;87.80;;;6.60;99.90;;;;;;5010585;28;20208;-71
2022/03/29 05:41:28;;;;;;;196.27;179.63;;;6.60;99.90;;;;;;5020990;28;20269;-71
2022/03/29 05:43:54;;;;;;;67.30;53.93;;;6.60;99.90;;;;;;5013227;28;20235;-72
2022/03/29 05:49:04;;;;;;;24.27;18.37;;;6.70;99.90;;;;;;5005385;28;20219;-71
2022/03/29 05:51:31;;;;;;;113.03;102.27;;;6.80;99.90;;;;;;5011704;28;20200;-71
2022/03/29 05:54:01;;;;;;;33.23;18.23;;;6.90;99.90;;;;;;5014057;28;20891;-71
2022/03/29 05:56:27;;;;;;;29.83;18.80;;;6.90;99.90;;;;;;5006622;28;20236;-71
2022/03/29 05:58:53;;;;;;;28.37;16.87;;;6.90;99.90;;;;;;5018353;28;21028;-71
2022/03/29 06:01:19;;;;;;;24.40;16.43;;;6.90;99.90;;;;;;5017237;28;20203;-70
2022/03/29 06:03:44;;;;;;;68.43;57.07;;;6.90;99.90;;;;;;5011876;28;20253;-70
2022/03/29 06:06:10;;;;;;;128.20;107.10;;;6.90;99.90;;;;;;5016818;28;20195;-70
2022/03/29 06:08:35;;;;;;;165.93;149.87;;;6.80;99.90;;;;;;5010699;28;20204;-71
2022/03/29 06:11:04;;;;;;;25.33;17.23;;;6.70;99.90;;;;;;5019590;28;20195;-70
2022/03/29 06:13:29;;;;;;;34.17;17.13;;;6.80;99.90;;;;;;5007615;28;20203;-70
2022/03/29 06:15:55;;;;;;;34.13;16.83;;;6.80;99.90;;;;;;5010882;28;20218;-70
2022/03/29 06:18:21;;;;;;;29.73;18.93;;;6.80;99.90;;;;;;5005829;28;20196;-70
2022/03/29 06:20:47;;;;;;;34.70;18.37;;;6.80;99.90;;;;;;5013139;28;20202;-73
2022/03/29 06:23:13;;;;;;;27.07;17.63;;;6.80;99.90;;;;;;5007138;28;20203;-73
2022/03/29 06:25:39;;;;;;;54.43;48.60;;;6.80;99.90;;;;;;5007658;28;20204;-75
2022/03/29 06:28:04;;;;;;;27.57;15.17;;;6.80;99.90;;;;;;5003756;28;20226;-75
2022/03/29 06:30:30;;;;;;;56.60;45.53;;;6.90;99.90;;;;;;5009741;28;20666;-74
2022/03/29 06:32:55;;;;;;;57.17;52.17;;;6.80;99.90;;;;;;5022663;28;20650;-73
2022/03/29 06:35:23;;;;;;;37.63;21.27;;;6.90;99.90;;;;;;5009950;28;20211;-74
2022/03/29 06:37:55;;;;;;;26.53;18.07;;;6.90;99.90;;;;;;5003916;28;20682;-74
2022/03/29 06:40:22;;;;;;;30.47;17.67;;;6.90;99.90;;;;;;5018119;28;20260;-74
2022/03/29 06:42:49;;;;;;;22.97;15.87;;;7.00;99.90;;;;;;5016812;28;20375;-74
2022/03/29 06:45:14;;;;;;;24.23;15.20;;;7.10;99.90;;;;;;5025471;28;20206;-72
2022/03/29 06:47:41;;;;;;;27.33;15.90;;;7.10;99.90;;;;;;5019024;28;20564;-73
2022/03/29 06:50:08;;;;;;;26.97;15.90;;;7.10;99.90;;;;;;5023571;28;20575;-75
2022/03/29 06:52:35;;;;;;;29.63;17.27;;;7.10;99.90;;;;;;5007675;28;20290;-74
2022/03/29 06:55:00;;;;;;;25.33;16.23;;;7.20;99.90;;;;;;5025612;28;20586;-77
2022/03/29 06:57:26;;;;;;;35.43;17.63;;;7.20;99.90;;;;;;5012899;28;20192;-71
2022/03/29 06:59:51;;;;;;;28.67;13.77;;;7.20;99.90;;;;;;5023741;28;20199;-70
2022/03/29 07:02:19;;;;;;;29.80;17.67;;;7.30;99.90;;;;;;5007823;28;20235;-70
2022/03/29 07:04:44;;;;;;;21.27;14.90;;;7.30;99.90;;;;;;5020571;28;20278;-70
2022/03/29 07:07:10;;;;;;;22.07;15.67;;;7.30;99.90;;;;;;5014067;28;20551;-69
2022/03/29 07:12:20;;;;;;;31.63;16.13;;;7.40;99.90;;;;;;5022283;28;20908;-69
2022/03/29 07:14:46;;;;;;;28.07;15.27;;;7.30;99.90;;;;;;5019347;28;20585;-67
2022/03/29 07:17:13;;;;;;;21.97;14.47;;;7.40;99.90;;;;;;5017290;28;20187;-76
2022/03/29 07:19:39;;;;;;;27.20;14.87;;;7.40;99.90;;;;;;5027669;28;20269;-71
2022/03/29 07:22:05;;;;;;;20.17;12.93;;;7.50;99.90;;;;;;5015660;28;20272;-71
2022/03/29 07:24:30;;;;;;;19.53;12.03;;;7.60;99.90;;;;;;5023824;28;20185;-70
2022/03/29 07:26:56;;;;;;;24.37;18.60;;;7.60;99.90;;;;;;5008307;28;20258;-71
2022/03/29 07:29:22;;;;;;;20.90;11.67;;;7.50;99.90;;;;;;5008725;28;20187;-70
2022/03/29 07:31:48;;;;;;;47.57;24.77;;;7.60;99.90;;;;;;4992479;28;20188;-70
2022/03/29 07:34:14;;;;;;;46.70;42.57;;;7.70;99.90;;;;;;5008736;28;20188;-70
2022/03/29 07:36:40;;;;;;;104.73;97.03;;;7.60;99.90;;;;;;5017090;28;20253;-70
2022/03/29 07:39:05;;;;;;;19.90;12.83;;;7.50;99.90;;;;;;5016678;28;20775;-74
2022/03/29 07:41:32;;;;;;;20.47;11.47;;;7.50;99.90;;;;;;5022593;28;20205;-77
2022/03/29 07:43:58;;;;;;;24.10;12.53;;;7.70;99.90;;;;;;5007284;28;20205;-77
2022/03/29 07:46:23;;;;;;;23.10;13.17;;;7.70;99.90;;;;;;5024944;28;20202;-76
2022/03/29 07:48:49;;;;;;;19.40;12.87;;;7.70;99.90;;;;;;5020293;28;20208;-76
2022/03/29 07:51:18;;;;;;;22.20;12.90;;;7.80;99.90;;;;;;5023073;28;20258;-75
2022/03/29 07:53:44;;;;;;;120.20;110.40;;;7.90;99.90;;;;;;5013548;28;20200;-72
2022/03/29 07:56:10;;;;;;;18.40;10.60;;;7.80;99.90;;;;;;5019039;28;20258;-73
2022/03/29 07:58:35;;;;;;;21.20;13.00;;;7.80;99.90;;;;;;5008570;28;20287;-72
2022/03/29 08:01:01;;;;;;;15.70;9.33;;;7.90;99.90;;;;;;5013749;28;20191;-71
2022/03/29 08:03:32;;;;;;;17.97;11.77;;;7.90;99.90;;;;;;5012018;28;20191;-70
2022/03/29 08:05:58;;;;;;;15.63;9.87;;;7.80;99.90;;;;;;5020543;28;20203;-72
2022/03/29 08:08:24;;;;;;;17.23;13.47;;;7.90;99.90;;;;;;5015963;28;20199;-71
2022/03/29 08:10:50;;;;;;;20.87;10.70;;;7.90;99.90;;;;;;5016418;28;20928;-71
2022/03/29 08:13:16;;;;;;;20.50;12.80;;;8.00;99.90;;;;;;5006488;28;20212;-71
2022/03/29 08:15:45;;;;;;;20.03;12.27;;;8.10;99.90;;;;;;5023745;28;20207;-75
2022/03/29 08:18:10;;;;;;;17.83;7.73;;;8.20;99.90;;;;;;5025843;28;20214;-70
2022/03/29 08:20:37;;;;;;;13.20;8.73;;;8.20;99.90;;;;;;5022586;28;20603;-72
2022/03/29 08:23:03;;;;;;;12.73;7.80;;;8.20;99.90;;;;;;5024095;28;20577;-71
2022/03/29 08:25:32;;;;;;;14.03;8.50;;;8.30;99.40;;;;;;5018414;28;20211;-75
2022/03/29 08:27:59;;;;;;;15.77;9.67;;;8.10;99.50;;;;;;5005950;28;20310;-71
2022/03/29 08:30:26;;;;;;;16.27;10.20;;;8.20;99.90;;;;;;5010355;28;20208;-70
2022/03/29 08:32:53;;;;;;;16.83;11.13;;;8.20;99.90;;;;;;5025158;28;20208;-70
2022/03/29 08:35:18;;;;;;;16.97;9.67;;;8.40;99.90;;;;;;5011615;28;20241;-70
2022/03/29 08:37:46;;;;;;;24.53;11.53;;;8.40;99.90;;;;;;5006314;28;20200;-73
2022/03/29 08:40:14;;;;;;;8.07;5.87;;;8.30;99.90;;;;;;5011460;28;20200;-72
2022/03/29 08:42:42;;;;;;;19.37;9.20;;;8.40;99.70;;;;;;5024624;28;20195;-72
2022/03/29 08:45:09;;;;;;;18.00;10.50;;;8.50;99.00;;;;;;5021950;28;20286;-72
2022/03/29 08:47:35;;;;;;;16.10;9.97;;;8.60;98.50;;;;;;5017041;28;20206;-71
2022/03/29 08:50:04;;;;;;;20.07;9.70;;;8.50;98.70;;;;;;5020793;28;20199;-71
2022/03/29 08:52:31;;;;;;;12.63;9.90;;;8.60;99.00;;;;;;5018291;28;20203;-72
2022/03/29 08:54:56;;;;;;;11.20;6.67;;;8.70;98.90;;;;;;5014246;28;20697;-73
2022/03/29 08:57:22;;;;;;;15.97;9.67;;;8.70;97.80;;;;;;5016171;28;20214;-73
2022/03/29 08:59:47;;;;;;;14.97;8.10;;;8.50;98.10;;;;;;5011122;28;20189;-73
2022/03/29 09:02:17;;;;;;;15.43;10.67;;;8.60;98.20;;;;;;5019327;28;20235;-73
2022/03/29 09:04:44;;;;;;;20.60;12.63;;;8.70;98.40;;;;;;5018705;28;20654;-73
2022/03/29 09:07:10;;;;;;;17.33;11.40;;;8.90;98.40;;;;;;5021576;28;20214;-74
2022/03/29 09:09:41;;;;;;;16.03;10.47;;;9.10;98.00;;;;;;5016812;28;20193;-74
2022/03/29 09:12:14;;;;;;;16.20;12.40;;;9.10;96.10;;;;;;5010050;28;20203;-74
2022/03/29 09:14:54;;;;;;;15.77;12.73;;;9.10;96.40;;;;;;5007520;28;20592;-73
2022/03/29 09:17:33;;;;;;;18.17;10.83;;;9.10;95.80;;;;;;5007084;28;20235;-73
2022/03/29 09:20:00;;;;;;;24.03;12.00;;;9.10;96.40;;;;;;5008120;28;20194;-74
2022/03/29 09:22:40;;;;;;;19.47;13.13;;;9.20;97.00;;;;;;5013795;28;20260;-74
2022/03/29 09:25:07;;;;;;;18.77;12.07;;;9.10;97.30;;;;;;5020894;28;20220;-75
2022/03/29 09:27:56;;;;;;;17.53;11.60;;;9.10;97.50;;;;;;5015144;28;20237;-75
2022/03/29 09:30:24;;;;;;;22.97;13.20;;;9.20;97.10;;;;;;5010840;28;20193;-71
2022/03/29 09:32:51;;;;;;;19.63;13.00;;;9.30;97.20;;;;;;5015074;28;20682;-71
2022/03/29 09:35:17;;;;;;;21.23;13.30;;;9.40;97.10;;;;;;5009850;28;20270;-70
2022/03/29 09:37:44;;;;;;;20.60;12.57;;;9.40;96.80;;;;;;5005222;28;20699;-71
2022/03/29 09:40:10;;;;;;;23.17;13.40;;;9.40;96.50;;;;;;5007458;28;20196;-72
2022/03/29 09:42:37;;;;;;;19.47;12.20;;;9.50;96.10;;;;;;5022247;28;20206;-72
2022/03/29 09:45:03;;;;;;;18.60;10.50;;;9.60;95.20;;;;;;5023614;28;20207;-73
2022/03/29 09:47:29;;;;;;;12.83;8.53;;;9.70;95.60;;;;;;5004932;28;20579;-75
2022/03/29 09:49:57;;;;;;;15.30;10.97;;;9.70;95.70;;;;;;5008911;28;20232;-79
2022/03/29 09:52:25;;;;;;;17.00;11.40;;;9.60;95.50;;;;;;5017458;28;20233;-72
2022/03/29 09:55:05;;;;;;;11.80;8.30;;;9.40;95.40;;;;;;5018388;28;20294;-72
2022/03/29 09:57:39;;;;;;;17.27;9.00;;;9.50;94.80;;;;;;5014445;28;20683;-72
2022/03/29 10:00:07;;;;;;;14.43;10.57;;;9.60;94.20;;;;;;5008007;28;20330;-81
2022/03/29 10:02:35;;;;;;;15.40;11.00;;;9.80;94.20;;;;;;5014425;28;20288;-71
2022/03/29 10:05:01;;;;;;;13.37;11.17;;;9.90;93.70;;;;;;5009819;28;20200;-76
2022/03/29 10:07:27;;;;;;;18.83;10.57;;;10.00;92.60;;;;;;5015614;28;20195;-69
2022/03/29 10:09:52;;;;;;;16.77;10.83;;;10.10;92.30;;;;;;5014475;28;20202;-70
2022/03/29 10:12:22;;;;;;;17.77;10.77;;;10.10;92.30;;;;;;5018732;28;20188;-73
2022/03/29 10:14:47;;;;;;;16.97;11.67;;;10.10;92.10;;;;;;5016291;28;20871;-73
2022/03/29 10:17:15;;;;;;;17.57;11.53;;;10.10;92.00;;;;;;5016869;28;20286;-86
2022/03/29 10:19:44;;;;;;;18.63;8.83;;;10.20;92.10;;;;;;5017712;28;20249;-85
2022/03/29 10:22:12;;;;;;;11.60;9.03;;;10.20;90.10;;;;;;5013201;28;20303;-86
2022/03/29 10:24:38;;;;;;;14.17;9.63;;;10.20;90.10;;;;;;5008526;28;20276;-72
2022/03/29 10:27:04;;;;;;;18.50;10.30;;;10.20;90.00;;;;;;5016311;28;21037;-70
2022/03/29 10:29:31;;;;;;;15.50;10.67;;;10.30;90.40;;;;;;5019789;28;20212;-70
2022/03/29 10:32:02;;;;;;;10.27;7.20;;;10.50;90.40;;;;;;5015432;28;20210;-78
2022/03/29 10:34:30;;;;;;;12.50;9.73;;;10.70;89.30;;;;;;5025557;28;20234;-78
2022/03/29 10:37:07;;;;;;;11.97;8.83;;;10.60;88.90;;;;;;5013062;28;20210;-76
2022/03/29 10:39:51;;;;;;;14.27;11.40;;;10.70;89.90;;;;;;5017428;28;20219;-77
2022/03/29 10:42:38;;;;;;;12.17;9.80;;;10.60;90.50;;;;;;5017075;28;20400;-75
2022/03/29 10:45:25;;;;;;;14.73;10.73;;;10.60;90.20;;;;;;5019910;28;20185;-72
2022/03/29 10:47:54;;;;;;;13.37;9.33;;;10.60;90.80;;;;;;5019492;28;20227;-74
2022/03/29 10:50:19;;;;;;;10.10;6.80;;;10.80;90.00;;;;;;5016494;28;20184;-73
2022/03/29 10:52:47;;;;;;;18.37;11.27;;;11.00;88.80;;;;;;5014667;28;21026;-74
2022/03/29 10:55:28;;;;;;;14.70;9.93;;;11.10;89.60;;;;;;5018181;28;20300;-68
2022/03/29 10:58:13;;;;;;;19.13;9.97;;;11.60;88.60;;;;;;5015478;28;20227;-66
2022/03/29 11:00:43;;;;;;;13.60;8.20;;;11.90;86.30;;;;;;5014103;28;20192;-69
2022/03/29 11:03:11;;;;;;;9.63;8.03;;;12.20;78.00;;;;;;5010244;28;20259;-68
2022/03/29 11:06:12;;;;;;;19.13;8.60;;;11.70;76.30;;;;;;5007897;28;20229;-73
2022/03/29 11:08:46;;;;;;;10.90;6.73;;;11.50;76.10;;;;;;5010227;28;20731;-70
2022/03/29 11:11:36;;;;;;;15.47;10.03;;;11.80;77.70;;;;;;5021208;28;20218;-72
2022/03/29 11:14:32;;;;;;;9.17;5.07;;;11.90;76.30;;;;;;5020275;28;20202;-69
2022/03/29 11:17:09;;;;;;;7.20;5.00;;;11.90;75.40;;;;;;5009243;28;20206;-68
2022/03/29 11:19:52;;;;;;;15.03;7.10;;;12.10;73.10;;;;;;5022118;28;20189;-72
2022/03/29 11:22:25;;;;;;;9.17;5.53;;;11.90;72.00;;;;;;5015121;28;20621;-70
2022/03/29 11:24:53;;;;;;;13.57;8.67;;;12.10;71.30;;;;;;5016602;28;20228;-69
2022/03/29 11:27:22;;;;;;;16.63;6.17;;;12.20;73.10;;;;;;5022496;28;20211;-69
2022/03/29 11:29:48;;;;;;;9.70;5.60;;;12.60;69.40;;;;;;5018532;28;20217;-72
2022/03/29 11:32:15;;;;;;;12.23;6.30;;;12.70;66.40;;;;;;5007931;28;20633;-73
2022/03/29 11:34:40;;;;;;;16.23;6.27;;;12.80;66.40;;;;;;5021273;28;20252;-73
2022/03/29 11:37:07;;;;;;;13.37;4.03;;;13.10;65.70;;;;;;5006611;28;20204;-72
2022/03/29 11:39:33;;;;;;;5.17;3.80;;;13.10;62.90;;;;;;5023672;28;20294;-72
2022/03/29 11:41:58;;;;;;;9.07;5.43;;;13.30;59.00;;;;;;5015017;28;20314;-73
2022/03/29 11:44:26;;;;;;;5.70;4.27;;;13.20;59.50;;;;;;5016057;28;20512;-71
2022/03/29 11:46:56;;;;;;;5.60;3.43;;;13.30;59.50;;;;;;5006794;28;20217;-71
2022/03/29 11:49:26;;;;;;;8.03;4.40;;;13.20;57.50;;;;;;5016565;28;20189;-71
2022/03/29 11:52:13;;;;;;;7.80;5.47;;;13.20;58.50;;;;;;5019043;28;20199;-72
2022/03/29 11:54:47;;;;;;;10.93;5.50;;;13.20;60.40;;;;;;5017825;28;20242;-72
2022/03/29 11:57:24;;;;;;;8.77;4.80;;;13.60;60.30;;;;;;5017995;28;20297;-72
2022/03/29 11:59:51;;;;;;;150.97;27.50;;;13.70;58.00;;;;;;5023009;28;20184;-69
2022/03/29 12:02:18;;;;;;;8.18;5.03;;;13.80;57.40;;;;;;5017478;28;20436;-67
2022/03/29 12:04:45;;;;;;;6.63;3.20;;;15.20;55.60;;;;;;5024831;28;20192;-68
2022/03/29 12:07:10;;;;;;;6.30;2.93;;;15.50;52.90;;;;;;5021228;28;20199;-64
2022/03/29 12:09:36;;;;;;;8.43;4.07;;;15.70;51.60;;;;;;5027168;28;20176;-63
2022/03/29 12:12:03;;;;;;;8.00;3.83;;;15.40;51.50;;;;;;5019230;28;20214;-64
2022/03/29 12:14:30;;;;;;;8.80;3.53;;;14.40;53.60;;;;;;5017183;28;20175;-63
2022/03/29 12:17:03;;;;;;;6.90;2.90;;;14.00;52.20;;;;;;5016287;28;20207;-62
2022/03/29 12:19:29;;;;;;;4.87;2.63;;;14.50;51.10;;;;;;5018443;28;20189;-63
2022/03/29 12:22:02;;;;;;;3.73;1.50;;;14.70;49.80;;;;;;5017703;28;20241;-70
2022/03/29 12:24:36;;;;;;;3.27;2.40;;;14.60;48.20;;;;;;5024425;28;20653;-71
2022/03/29 12:27:06;;;;;;;3.03;2.03;;;14.40;47.30;;;;;;5020621;28;20321;-69
2022/03/29 12:29:34;;;;;;;9.10;3.33;;;14.70;47.40;;;;;;5018473;28;20194;-71
2022/03/29 12:32:02;;;;;;;5.73;2.10;;;14.60;48.40;;;;;;5014360;28;20221;-72
2022/03/29 12:34:31;;;;;;;7.33;3.10;;;14.90;47.80;;;;;;5017778;28;20175;-71
2022/03/29 12:36:59;;;;;;;3.07;2.50;;;15.20;47.80;;;;;;5015811;28;20210;-73
2022/03/29 12:39:32;;;;;;;3.10;2.60;;;15.40;47.50;;;;;;5025548;28;20634;-71
2022/03/29 12:41:57;;;;;;;4.40;2.33;;;14.90;48.50;;;;;;5020198;28;20198;-84
2022/03/29 12:44:32;;;;;;;3.10;2.43;;;14.30;48.30;;;;;;5015984;28;20186;-81
2022/03/29 12:46:58;;;;;;;14.47;4.73;;;13.90;50.80;;;;;;5012514;28;20195;-70